sensor_id;sensor_type;location;lat;lon;timestamp;pressure;altitude;pressure_sealevel;temperature;humidity
59043;BME280;44826;51.596;5.624;2023-04-09T00:01:37;102469.88;;;9.38;79.35
59043;BME280;44826;51.596;5.624;2023-04-09T00:04:02;102470.75;;;9.37;79.58
59043;BME280;44826;51.596;5.624;2023-04-09T00:06:28;102471.59;;;9.36;79.47
59043;BME280;44826;51.596;5.624;2023-04-09T00:08:53;102471.59;;;9.36;79.50
59043;BME280;44826;51.596;5.624;2023-04-09T00:11:18;102471.56;;;9.33;79.84
59043;BME280;44826;51.596;5.624;2023-04-09T00:13:44;102474.16;;;9.34;79.67
59043;BME280;44826;51.596;5.624;2023-04-09T00:16:09;102475.88;;;9.32;79.54
59043;BME280;44826;51.596;5.624;2023-04-09T00:18:34;102467.25;;;9.30;79.47
59043;BME280;44826;51.596;5.624;2023-04-09T00:21:00;102465.47;;;9.27;79.46
59043;BME280;44826;51.596;5.624;2023-04-09T00:23:25;102462.88;;;9.26;79.63
59043;BME280;44826;51.596;5.624;2023-04-09T00:25:50;102462.00;;;9.24;79.49
59043;BME280;44826;51.596;5.624;2023-04-09T00:28:16;102460.25;;;9.23;79.68
59043;BME280;44826;51.596;5.624;2023-04-09T00:30:41;102461.13;;;9.22;79.62
59043;BME280;44826;51.596;5.624;2023-04-09T00:33:06;102457.66;;;9.21;79.77
59043;BME280;44826;51.596;5.624;2023-04-09T00:35:32;102451.59;;;9.21;79.78
59043;BME280;44826;51.596;5.624;2023-04-09T00:37:57;102451.59;;;9.19;79.84
59043;BME280;44826;51.596;5.624;2023-04-09T00:40:22;102452.44;;;9.18;79.72
59043;BME280;44826;51.596;5.624;2023-04-09T00:42:47;102449.84;;;9.18;80.00
59043;BME280;44826;51.596;5.624;2023-04-09T00:45:13;102448.97;;;9.16;80.17
59043;BME280;44826;51.596;5.624;2023-04-09T00:47:38;102440.31;;;9.16;79.83
59043;BME280;44826;51.596;5.624;2023-04-09T00:50:04;102440.31;;;9.14;80.13
59043;BME280;44826;51.596;5.624;2023-04-09T00:52:29;102440.31;;;9.14;80.14
59043;BME280;44826;51.596;5.624;2023-04-09T00:54:55;102435.13;;;9.13;80.40
59043;BME280;44826;51.596;5.624;2023-04-09T00:57:20;102439.44;;;9.14;80.35
59043;BME280;44826;51.596;5.624;2023-04-09T00:59:46;102436.81;;;9.12;80.49
59043;BME280;44826;51.596;5.624;2023-04-09T01:02:11;102431.63;;;9.12;80.44
59043;BME280;44826;51.596;5.624;2023-04-09T01:04:39;102439.41;;;9.12;80.65
59043;BME280;44826;51.596;5.624;2023-04-09T01:07:22;102432.53;;;9.13;80.60
59043;BME280;44826;51.596;5.624;2023-04-09T01:10:16;102439.41;;;9.12;80.33
59043;BME280;44826;51.596;5.624;2023-04-09T01:13:06;102436.81;;;9.12;80.53
59043;BME280;44826;51.596;5.624;2023-04-09T01:15:35;102431.63;;;9.12;81.03
59043;BME280;44826;51.596;5.624;2023-04-09T01:18:30;102431.63;;;9.12;80.71
59043;BME280;44826;51.596;5.624;2023-04-09T01:21:03;102428.19;;;9.11;81.33
59043;BME280;44826;51.596;5.624;2023-04-09T01:26:10;102431.63;;;9.10;81.30
59043;BME280;44826;51.596;5.624;2023-04-09T01:28:45;102430.75;;;9.10;81.25
59043;BME280;44826;51.596;5.624;2023-04-09T01:31:13;102428.13;;;9.07;81.42
59043;BME280;44826;51.596;5.624;2023-04-09T01:33:40;102429.88;;;9.06;82.06
59043;BME280;44826;51.596;5.624;2023-04-09T01:36:06;102425.53;;;9.05;81.71
59043;BME280;44826;51.596;5.624;2023-04-09T01:38:34;102427.28;;;9.06;81.92
59043;BME280;44826;51.596;5.624;2023-04-09T01:41:00;102429.00;;;9.06;81.66
59043;BME280;44826;51.596;5.624;2023-04-09T01:43:27;102421.19;;;9.06;81.85
59043;BME280;44826;51.596;5.624;2023-04-09T01:45:53;102426.38;;;9.06;81.94
59043;BME280;44826;51.596;5.624;2023-04-09T01:48:19;102426.38;;;9.06;81.77
59043;BME280;44826;51.596;5.624;2023-04-09T01:50:45;102424.69;;;9.05;82.05
59043;BME280;44826;51.596;5.624;2023-04-09T01:53:10;102422.06;;;9.03;81.69
59043;BME280;44826;51.596;5.624;2023-04-09T01:55:36;102420.31;;;9.02;81.81
59043;BME280;44826;51.596;5.624;2023-04-09T01:58:01;102420.31;;;9.01;82.12
59043;BME280;44826;51.596;5.624;2023-04-09T02:00:31;102420.28;;;8.99;81.94
59043;BME280;44826;51.596;5.624;2023-04-09T02:03:22;102421.19;;;9.00;81.60
59043;BME280;44826;51.596;5.624;2023-04-09T02:06:01;102422.00;;;8.97;81.85
59043;BME280;44826;51.596;5.624;2023-04-09T02:08:29;102421.16;;;8.95;81.95
59043;BME280;44826;51.596;5.624;2023-04-09T02:10:57;102416.78;;;8.92;82.16
59043;BME280;44826;51.596;5.624;2023-04-09T02:13:23;102425.44;;;8.91;82.22
59043;BME280;44826;51.596;5.624;2023-04-09T02:15:51;102426.28;;;8.90;82.05
59043;BME280;44826;51.596;5.624;2023-04-09T02:18:23;102424.56;;;8.89;82.24
59043;BME280;44826;51.596;5.624;2023-04-09T02:20:49;102422.81;;;8.85;82.12
59043;BME280;44826;51.596;5.624;2023-04-09T02:23:15;102418.47;;;8.84;82.17
59043;BME280;44826;51.596;5.624;2023-04-09T02:25:40;102421.09;;;8.84;82.41
59043;BME280;44826;51.596;5.624;2023-04-09T02:28:06;102414.16;;;8.83;82.44
59043;BME280;44826;51.596;5.624;2023-04-09T02:30:31;102414.16;;;8.83;82.48
59043;BME280;44826;51.596;5.624;2023-04-09T02:32:56;102412.41;;;8.82;82.40
59043;BME280;44826;51.596;5.624;2023-04-09T02:35:22;102409.81;;;8.82;82.24
59043;BME280;44826;51.596;5.624;2023-04-09T02:37:47;102412.41;;;8.82;82.53
59043;BME280;44826;51.596;5.624;2023-04-09T02:40:12;102410.66;;;8.81;82.16
59043;BME280;44826;51.596;5.624;2023-04-09T02:42:37;102407.19;;;8.80;82.32
59043;BME280;44826;51.596;5.624;2023-04-09T02:45:03;102409.78;;;8.80;82.68
59043;BME280;44826;51.596;5.624;2023-04-09T02:47:28;102406.34;;;8.80;82.55
59043;BME280;44826;51.596;5.624;2023-04-09T02:49:54;102408.06;;;8.79;82.67
59043;BME280;44826;51.596;5.624;2023-04-09T02:52:19;102402.00;;;8.79;82.96
59043;BME280;44826;51.596;5.624;2023-04-09T02:54:48;102408.94;;;8.80;82.90
59043;BME280;44826;51.596;5.624;2023-04-09T02:57:13;102403.75;;;8.80;82.83
59043;BME280;44826;51.596;5.624;2023-04-09T02:59:39;102400.28;;;8.81;82.78
59043;BME280;44826;51.596;5.624;2023-04-09T03:02:04;102402.88;;;8.81;83.03
59043;BME280;44826;51.596;5.624;2023-04-09T03:04:30;102399.41;;;8.80;82.87
59043;BME280;44826;51.596;5.624;2023-04-09T03:06:55;102401.16;;;8.78;82.84
59043;BME280;44826;51.596;5.624;2023-04-09T03:09:20;102399.38;;;8.76;82.63
59043;BME280;44826;51.596;5.624;2023-04-09T03:11:46;102400.25;;;8.75;82.66
59043;BME280;44826;51.596;5.624;2023-04-09T03:14:11;102396.78;;;8.74;83.11
59043;BME280;44826;51.596;5.624;2023-04-09T03:16:36;102396.78;;;8.74;82.60
59043;BME280;44826;51.596;5.624;2023-04-09T03:19:01;102395.91;;;8.72;82.58
59043;BME280;44826;51.596;5.624;2023-04-09T03:21:27;102391.56;;;8.70;82.33
59043;BME280;44826;51.596;5.624;2023-04-09T03:23:52;102394.13;;;8.68;81.84
59043;BME280;44826;51.596;5.624;2023-04-09T03:26:17;102396.72;;;8.65;81.14
59043;BME280;44826;51.596;5.624;2023-04-09T03:28:43;102393.22;;;8.61;80.83
59043;BME280;44826;51.596;5.624;2023-04-09T03:31:08;102394.94;;;8.58;81.17
59043;BME280;44826;51.596;5.624;2023-04-09T03:33:34;102393.16;;;8.55;80.91
59043;BME280;44826;51.596;5.624;2023-04-09T03:35:59;102387.13;;;8.53;81.27
59043;BME280;44826;51.596;5.624;2023-04-09T03:38:24;102384.53;;;8.53;81.38
59043;BME280;44826;51.596;5.624;2023-04-09T03:40:50;102385.38;;;8.52;81.14
59043;BME280;44826;51.596;5.624;2023-04-09T03:43:15;102387.06;;;8.48;81.54
59043;BME280;44826;51.596;5.624;2023-04-09T03:45:40;102385.38;;;8.49;81.48
59043;BME280;44826;51.596;5.624;2023-04-09T03:48:05;102375.84;;;8.48;81.43
59043;BME280;44826;51.596;5.624;2023-04-09T03:50:36;102382.72;;;8.46;81.17
59043;BME280;44826;51.596;5.624;2023-04-09T03:53:02;102377.50;;;8.46;81.37
59043;BME280;44826;51.596;5.624;2023-04-09T03:55:27;102374.03;;;8.44;80.94
59043;BME280;44826;51.596;5.624;2023-04-09T03:57:52;102365.38;;;8.42;81.13
59043;BME280;44826;51.596;5.624;2023-04-09T04:00:17;102370.53;;;8.39;81.15
59043;BME280;44826;51.596;5.624;2023-04-09T04:02:43;102373.97;;;8.38;81.34
59043;BME280;44826;51.596;5.624;2023-04-09T04:05:08;102379.16;;;8.36;81.20
59043;BME280;44826;51.596;5.624;2023-04-09T04:07:33;102372.22;;;8.30;81.31
59043;BME280;44826;51.596;5.624;2023-04-09T04:09:59;102374.78;;;8.29;81.24
59043;BME280;44826;51.596;5.624;2023-04-09T04:12:24;102371.31;;;8.27;81.09
59043;BME280;44826;51.596;5.624;2023-04-09T04:14:49;102375.59;;;8.23;81.20
59043;BME280;44826;51.596;5.624;2023-04-09T04:17:15;102378.16;;;8.20;81.04
59043;BME280;44826;51.596;5.624;2023-04-09T04:19:40;102379.00;;;8.16;80.90
59043;BME280;44826;51.596;5.624;2023-04-09T04:22:05;102377.19;;;8.09;81.12
59043;BME280;44826;51.596;5.624;2023-04-09T04:24:30;102378.00;;;8.01;80.78
59043;BME280;44826;51.596;5.624;2023-04-09T04:26:56;102379.63;;;7.93;80.66
59043;BME280;44826;51.596;5.624;2023-04-09T04:29:21;102379.56;;;7.84;80.76
59043;BME280;44826;51.596;5.624;2023-04-09T04:31:46;102376.00;;;7.75;80.74
59043;BME280;44826;51.596;5.624;2023-04-09T04:34:11;102381.97;;;7.68;80.57
59043;BME280;44826;51.596;5.624;2023-04-09T04:36:37;102381.00;;;7.62;80.60
59043;BME280;44826;51.596;5.624;2023-04-09T04:39:02;102378.34;;;7.54;80.62
59043;BME280;44826;51.596;5.624;2023-04-09T04:41:27;102378.25;;;7.44;80.83
59043;BME280;44826;51.596;5.624;2023-04-09T04:43:53;102382.47;;;7.38;80.77
59043;BME280;44826;51.596;5.624;2023-04-09T04:46:18;102384.97;;;7.30;80.86
59043;BME280;44826;51.596;5.624;2023-04-09T04:48:44;102372.78;;;7.23;80.82
59043;BME280;44826;51.596;5.624;2023-04-09T04:51:09;102377.03;;;7.16;80.79
59043;BME280;44826;51.596;5.624;2023-04-09T04:53:35;102384.72;;;7.11;81.10
59043;BME280;44826;51.596;5.624;2023-04-09T04:56:00;102381.19;;;7.06;81.08
59043;BME280;44826;51.596;5.624;2023-04-09T04:58:25;102376.81;;;7.01;81.17
59043;BME280;44826;51.596;5.624;2023-04-09T05:00:50;102385.31;;;6.93;81.08
59043;BME280;44826;51.596;5.624;2023-04-09T05:03:16;102382.69;;;6.89;81.49
59043;BME280;44826;51.596;5.624;2023-04-09T05:05:41;102380.03;;;6.84;81.83
59043;BME280;44826;51.596;5.624;2023-04-09T05:08:06;102382.56;;;6.81;81.93
59043;BME280;44826;51.596;5.624;2023-04-09T05:10:32;102384.25;;;6.77;81.72
59043;BME280;44826;51.596;5.624;2023-04-09T05:12:57;102384.19;;;6.74;82.20
59043;BME280;44826;51.596;5.624;2023-04-09T05:15:22;102376.38;;;6.70;81.94
59043;BME280;44826;51.596;5.624;2023-04-09T05:17:48;102382.34;;;6.65;82.01
59043;BME280;44826;51.596;5.624;2023-04-09T05:20:13;102382.31;;;6.64;81.97
59043;BME280;44826;51.596;5.624;2023-04-09T05:22:38;102380.59;;;6.63;82.33
59043;BME280;44826;51.596;5.624;2023-04-09T05:25:04;102378.84;;;6.62;82.47
59043;BME280;44826;51.596;5.624;2023-04-09T05:27:30;102377.91;;;6.58;82.63
59043;BME280;44826;51.596;5.624;2023-04-09T05:29:55;102377.88;;;6.55;82.51
59043;BME280;44826;51.596;5.624;2023-04-09T05:32:20;102384.69;;;6.51;82.81
59043;BME280;44826;51.596;5.624;2023-04-09T05:34:45;102382.94;;;6.50;82.81
59043;BME280;44826;51.596;5.624;2023-04-09T05:37:11;102386.41;;;6.51;82.55
59043;BME280;44826;51.596;5.624;2023-04-09T05:39:36;102390.72;;;6.50;82.85
59043;BME280;44826;51.596;5.624;2023-04-09T05:42:02;102385.53;;;6.50;82.85
59043;BME280;44826;51.596;5.624;2023-04-09T05:44:27;102381.25;;;6.51;83.05
59043;BME280;44826;51.596;5.624;2023-04-09T05:46:52;102384.69;;;6.51;83.17
59043;BME280;44826;51.596;5.624;2023-04-09T05:49:17;102383.00;;;6.52;82.94
59043;BME280;44826;51.596;5.624;2023-04-09T05:51:43;102376.13;;;6.54;82.93
59043;BME280;44826;51.596;5.624;2023-04-09T05:54:08;102387.34;;;6.55;83.01
59043;BME280;44826;51.596;5.624;2023-04-09T05:56:34;102385.66;;;6.57;83.30
59043;BME280;44826;51.596;5.624;2023-04-09T05:58:59;102377.91;;;6.58;83.24
59043;BME280;44826;51.596;5.624;2023-04-09T06:01:24;102385.72;;;6.61;83.63
59043;BME280;44826;51.596;5.624;2023-04-09T06:03:49;102382.31;;;6.64;83.52
59043;BME280;44826;51.596;5.624;2023-04-09T06:06:15;102384.06;;;6.65;83.43
59043;BME280;44826;51.596;5.624;2023-04-09T06:08:40;102387.50;;;6.65;83.66
59043;BME280;44826;51.596;5.624;2023-04-09T06:11:10;102385.81;;;6.69;83.72
59043;BME280;44826;51.596;5.624;2023-04-09T06:13:35;102385.03;;;6.72;83.74
59043;BME280;44826;51.596;5.624;2023-04-09T06:16:03;102385.88;;;6.72;83.78
59043;BME280;44826;51.596;5.624;2023-04-09T06:18:29;102385.88;;;6.72;84.23
59043;BME280;44826;51.596;5.624;2023-04-09T06:21:01;102386.78;;;6.76;83.95
59043;BME280;44826;51.596;5.624;2023-04-09T06:23:27;102386.84;;;6.77;83.84
59043;BME280;44826;51.596;5.624;2023-04-09T06:25:52;102388.63;;;6.81;83.72
59043;BME280;44826;51.596;5.624;2023-04-09T06:28:17;102389.50;;;6.83;83.63
59043;BME280;44826;51.596;5.624;2023-04-09T06:30:42;102401.59;;;6.84;83.65
59043;BME280;44826;51.596;5.624;2023-04-09T06:33:08;102403.31;;;6.86;83.77
59043;BME280;44826;51.596;5.624;2023-04-09T06:35:33;102405.97;;;6.89;83.96
59043;BME280;44826;51.596;5.624;2023-04-09T06:37:58;102407.75;;;6.91;84.09
59043;BME280;44826;51.596;5.624;2023-04-09T06:40:24;102405.22;;;6.96;83.90
59043;BME280;44826;51.596;5.624;2023-04-09T06:42:49;102406.13;;;6.99;84.47
59043;BME280;44826;51.596;5.624;2023-04-09T06:45:14;102406.19;;;7.04;84.50
59043;BME280;44826;51.596;5.624;2023-04-09T06:47:39;102412.31;;;7.09;83.95
59043;BME280;44826;51.596;5.624;2023-04-09T06:50:05;102402.84;;;7.11;84.40
59043;BME280;44826;51.596;5.624;2023-04-09T06:52:30;102411.50;;;7.15;84.07
59043;BME280;44826;51.596;5.624;2023-04-09T06:54:56;102402.91;;;7.18;84.25
59043;BME280;44826;51.596;5.624;2023-04-09T06:57:21;102409.03;;;7.21;84.57
59043;BME280;44826;51.596;5.624;2023-04-09T06:59:46;102406.47;;;7.24;83.66
59043;BME280;44826;51.596;5.624;2023-04-09T07:02:11;102408.22;;;7.27;84.48
59043;BME280;44826;51.596;5.624;2023-04-09T07:04:37;102409.13;;;7.29;83.78
59043;BME280;44826;51.596;5.624;2023-04-09T07:07:02;102418.63;;;7.30;83.99
59043;BME280;44826;51.596;5.624;2023-04-09T07:09:27;102423.84;;;7.33;83.27
59043;BME280;44826;51.596;5.624;2023-04-09T07:11:52;102422.13;;;7.32;83.40
59043;BME280;44826;51.596;5.624;2023-04-09T07:14:18;102421.25;;;7.33;83.70
59043;BME280;44826;51.596;5.624;2023-04-09T07:16:43;102420.44;;;7.37;83.64
59043;BME280;44826;51.596;5.624;2023-04-09T07:19:10;102417.00;;;7.37;83.52
59043;BME280;44826;51.596;5.624;2023-04-09T07:21:36;102423.06;;;7.40;83.67
59043;BME280;44826;51.596;5.624;2023-04-09T07:24:01;102422.25;;;7.44;83.67
59043;BME280;44826;51.596;5.624;2023-04-09T07:26:26;102420.63;;;7.51;83.71
59043;BME280;44826;51.596;5.624;2023-04-09T07:28:53;102419.00;;;7.61;84.66
59043;BME280;44826;51.596;5.624;2023-04-09T07:31:18;102421.69;;;7.69;83.66
59043;BME280;44826;51.596;5.624;2023-04-09T07:33:43;102422.63;;;7.77;83.55
59043;BME280;44826;51.596;5.624;2023-04-09T07:36:09;102421.88;;;7.86;83.07
59043;BME280;44826;51.596;5.624;2023-04-09T07:38:34;102423.72;;;7.96;83.06
59043;BME280;44826;51.596;5.624;2023-04-09T07:40:59;102421.25;;;8.07;82.86
59043;BME280;44826;51.596;5.624;2023-04-09T07:43:25;102417.88;;;8.17;82.60
59043;BME280;44826;51.596;5.624;2023-04-09T07:45:50;102422.25;;;8.23;82.67
59043;BME280;44826;51.596;5.624;2023-04-09T07:48:16;102418.00;;;8.27;82.30
59043;BME280;44826;51.596;5.624;2023-04-09T07:50:41;102416.25;;;8.27;82.92
59043;BME280;44826;51.596;5.624;2023-04-09T07:53:07;102420.59;;;8.28;83.24
59043;BME280;44826;51.596;5.624;2023-04-09T07:55:32;102419.75;;;8.31;82.35
59043;BME280;44826;51.596;5.624;2023-04-09T07:57:57;102419.78;;;8.34;82.59
59043;BME280;44826;51.596;5.624;2023-04-09T08:00:23;102418.16;;;8.45;82.47
59043;BME280;44826;51.596;5.624;2023-04-09T08:02:49;102412.19;;;8.54;82.52
59043;BME280;44826;51.596;5.624;2023-04-09T08:05:14;102412.28;;;8.63;82.57
59043;BME280;44826;51.596;5.624;2023-04-09T08:07:40;102409.75;;;8.76;82.24
59043;BME280;44826;51.596;5.624;2023-04-09T08:10:05;102414.16;;;8.89;81.74
59043;BME280;44826;51.596;5.624;2023-04-09T08:12:31;102415.16;;;9.04;82.21
59043;BME280;44826;51.596;5.624;2023-04-09T08:14:56;102415.19;;;9.15;81.06
59043;BME280;44826;51.596;5.624;2023-04-09T08:17:21;102416.13;;;9.21;81.20
59043;BME280;44826;51.596;5.624;2023-04-09T08:19:47;102417.88;;;9.27;80.00
59043;BME280;44826;51.596;5.624;2023-04-09T08:22:13;102411.81;;;9.30;81.14
59043;BME280;44826;51.596;5.624;2023-04-09T08:24:41;102416.19;;;9.37;80.86
59043;BME280;44826;51.596;5.624;2023-04-09T08:27:07;102411.03;;;9.45;80.84
59043;BME280;44826;51.596;5.624;2023-04-09T08:29:33;102411.06;;;9.54;81.01
59043;BME280;44826;51.596;5.624;2023-04-09T08:31:59;102411.06;;;9.59;80.06
59043;BME280;44826;51.596;5.624;2023-04-09T08:34:24;102412.81;;;9.60;80.46
59043;BME280;44826;51.596;5.624;2023-04-09T08:36:49;102413.72;;;9.63;81.12
59043;BME280;44826;51.596;5.624;2023-04-09T08:39:16;102405.03;;;9.67;80.11
59043;BME280;44826;51.596;5.624;2023-04-09T08:41:44;102410.28;;;9.72;81.33
59043;BME280;44826;51.596;5.624;2023-04-09T08:44:09;102405.94;;;9.77;80.95
59043;BME280;44826;51.596;5.624;2023-04-09T08:46:35;102400.75;;;9.83;79.82
59043;BME280;44826;51.596;5.624;2023-04-09T08:49:01;102407.72;;;9.87;80.23
59043;BME280;44826;51.596;5.624;2023-04-09T08:51:26;102400.78;;;9.93;80.83
59043;BME280;44826;51.596;5.624;2023-04-09T08:53:58;102405.97;;;9.96;80.57
59043;BME280;44826;51.596;5.624;2023-04-09T08:56:23;102399.94;;;9.98;79.67
59043;BME280;44826;51.596;5.624;2023-04-09T08:58:49;102398.22;;;9.97;79.12
59043;BME280;44826;51.596;5.624;2023-04-09T09:01:25;102392.13;;;10.00;79.85
59043;BME280;44826;51.596;5.624;2023-04-09T09:03:59;102394.72;;;10.05;80.71
59043;BME280;44826;51.596;5.624;2023-04-09T09:06:27;102397.34;;;10.09;79.70
59043;BME280;44826;51.596;5.624;2023-04-09T09:11:35;102399.09;;;10.16;79.30
59043;BME280;44826;51.596;5.624;2023-04-09T09:14:11;102396.50;;;10.23;79.36
59043;BME280;44826;51.596;5.624;2023-04-09T09:16:39;102393.91;;;10.23;78.84
59043;BME280;44826;51.596;5.624;2023-04-09T09:19:08;102401.69;;;10.26;78.43
59043;BME280;44826;51.596;5.624;2023-04-09T09:21:34;102402.56;;;10.28;78.86
59043;BME280;44826;51.596;5.624;2023-04-09T09:24:01;102396.50;;;10.29;77.28
59043;BME280;44826;51.596;5.624;2023-04-09T09:26:28;102393.91;;;10.32;77.58
59043;BME280;44826;51.596;5.624;2023-04-09T09:28:54;102393.91;;;10.35;76.81
59043;BME280;44826;51.596;5.624;2023-04-09T09:31:21;102391.28;;;10.37;76.77
59043;BME280;44826;51.596;5.624;2023-04-09T09:33:47;102386.09;;;10.37;77.01
59043;BME280;44826;51.596;5.624;2023-04-09T09:36:14;102387.00;;;10.42;77.31
59043;BME280;44826;51.596;5.624;2023-04-09T09:38:55;102382.66;;;10.50;77.85
59043;BME280;44826;51.596;5.624;2023-04-09T09:41:21;102373.97;;;10.62;78.42
59043;BME280;44826;51.596;5.624;2023-04-09T09:43:47;102380.88;;;10.74;76.23
59043;BME280;44826;51.596;5.624;2023-04-09T09:46:14;102379.13;;;10.87;77.60
59043;BME280;44826;51.596;5.624;2023-04-09T09:48:39;102379.13;;;10.98;75.50
59043;BME280;44826;51.596;5.624;2023-04-09T09:51:09;102372.97;;;11.13;75.73
59043;BME280;44826;51.596;5.624;2023-04-09T09:53:35;102379.03;;;11.27;73.54
59043;BME280;44826;51.596;5.624;2023-04-09T09:56:06;102365.94;;;11.36;72.64
59043;BME280;44826;51.596;5.624;2023-04-09T09:58:36;102358.94;;;11.45;72.72
59043;BME280;44826;51.596;5.624;2023-04-09T10:01:08;102355.44;;;11.53;72.12
59043;BME280;44826;51.596;5.624;2023-04-09T10:03:35;102353.66;;;11.65;75.44
59043;BME280;44826;51.596;5.624;2023-04-09T10:06:04;102353.59;;;11.69;70.75
59043;BME280;44826;51.596;5.624;2023-04-09T10:08:31;102353.59;;;11.73;69.72
59043;BME280;44826;51.596;5.624;2023-04-09T10:10:59;102351.84;;;11.78;68.53
59043;BME280;44826;51.596;5.624;2023-04-09T10:13:28;102354.38;;;11.87;71.50
59043;BME280;44826;51.596;5.624;2023-04-09T10:15:57;102347.31;;;12.05;71.08
59043;BME280;44826;51.596;5.624;2023-04-09T10:18:23;102346.31;;;12.21;67.79
59043;BME280;44826;51.596;5.624;2023-04-09T10:20:53;102337.50;;;12.36;66.02
59043;BME280;44826;51.596;5.624;2023-04-09T10:23:31;102346.13;;;12.46;65.94
59043;BME280;44826;51.596;5.624;2023-04-09T10:25:57;102343.44;;;12.52;64.69
59043;BME280;44826;51.596;5.624;2023-04-09T10:28:23;102341.66;;;12.54;65.07
59043;BME280;44826;51.596;5.624;2023-04-09T10:30:48;102339.00;;;12.60;64.33
59043;BME280;44826;51.596;5.624;2023-04-09T10:33:15;102338.06;;;12.65;62.89
59043;BME280;44826;51.596;5.624;2023-04-09T10:35:41;102338.91;;;12.67;66.20
59043;BME280;44826;51.596;5.624;2023-04-09T10:38:09;102334.53;;;12.72;64.30
59043;BME280;44826;51.596;5.624;2023-04-09T10:40:39;102330.13;;;12.77;63.66
59043;BME280;44826;51.596;5.624;2023-04-09T10:43:06;102327.41;;;12.86;63.41
59043;BME280;44826;51.596;5.624;2023-04-09T10:45:39;102321.16;;;13.00;61.77
59043;BME280;44826;51.596;5.624;2023-04-09T10:48:10;102313.19;;;13.12;59.63
59043;BME280;44826;51.596;5.624;2023-04-09T10:50:36;102317.41;;;13.19;62.09
59043;BME280;44826;51.596;5.624;2023-04-09T10:53:03;102322.50;;;13.30;60.04
59043;BME280;44826;51.596;5.624;2023-04-09T10:55:39;102320.72;;;13.35;59.52
59043;BME280;44826;51.596;5.624;2023-04-09T10:58:09;102316.41;;;13.31;59.45
59043;BME280;44826;51.596;5.624;2023-04-09T11:00:43;102317.31;;;13.29;59.14
59043;BME280;44826;51.596;5.624;2023-04-09T11:05:59;102300.00;;;13.20;61.55
59043;BME280;44826;51.596;5.624;2023-04-09T11:08:30;102298.25;;;13.20;59.57
59043;BME280;44826;51.596;5.624;2023-04-09T11:10:56;102305.97;;;13.28;56.72
59043;BME280;44826;51.596;5.624;2023-04-09T11:13:23;102299.78;;;13.34;56.41
59043;BME280;44826;51.596;5.624;2023-04-09T11:15:49;102300.69;;;13.34;57.05
59043;BME280;44826;51.596;5.624;2023-04-09T11:18:25;102297.16;;;13.39;59.28
59043;BME280;44826;51.596;5.624;2023-04-09T11:20:58;102295.41;;;13.41;57.36
59043;BME280;44826;51.596;5.624;2023-04-09T11:23:25;102285.72;;;13.47;58.36
59043;BME280;44826;51.596;5.624;2023-04-09T11:25:51;102284.66;;;13.59;54.22
59043;BME280;44826;51.596;5.624;2023-04-09T11:28:17;102286.19;;;13.74;55.27
59043;BME280;44826;51.596;5.624;2023-04-09T11:30:42;102287.81;;;13.80;54.66
59043;BME280;44826;51.596;5.624;2023-04-09T11:33:10;102291.25;;;13.84;54.46
59043;BME280;44826;51.596;5.624;2023-04-09T11:35:36;102288.59;;;13.87;55.74
59043;BME280;44826;51.596;5.624;2023-04-09T11:38:05;102292.88;;;13.91;54.33
59043;BME280;44826;51.596;5.624;2023-04-09T11:40:31;102284.94;;;13.97;55.12
59043;BME280;44826;51.596;5.624;2023-04-09T11:42:56;102280.22;;;14.18;56.76
59043;BME280;44826;51.596;5.624;2023-04-09T11:45:24;102283.22;;;14.45;53.12
59043;BME280;44826;51.596;5.624;2023-04-09T11:47:50;102281.06;;;14.68;53.32
59043;BME280;44826;51.596;5.624;2023-04-09T11:50:16;102279.81;;;14.86;52.74
59043;BME280;44826;51.596;5.624;2023-04-09T11:52:44;102274.97;;;15.09;50.17
59043;BME280;44826;51.596;5.624;2023-04-09T11:55:09;102275.47;;;15.26;49.98
59043;BME280;44826;51.596;5.624;2023-04-09T12:00:16;102272.06;;;15.62;52.21
59043;BME280;44826;51.596;5.624;2023-04-09T12:02:47;102269.91;;;15.78;52.57
59043;BME280;44826;51.596;5.624;2023-04-09T12:05:23;102269.78;;;15.83;52.12
59043;BME280;44826;51.596;5.624;2023-04-09T12:07:49;102267.94;;;15.88;50.14
59043;BME280;44826;51.596;5.624;2023-04-09T12:10:15;102273.13;;;15.89;46.91
59043;BME280;44826;51.596;5.624;2023-04-09T12:12:45;102275.63;;;15.96;48.25
59043;BME280;44826;51.596;5.624;2023-04-09T12:15:22;102269.34;;;16.01;51.67
59043;BME280;44826;51.596;5.624;2023-04-09T12:17:52;102269.34;;;16.01;52.35
59043;BME280;44826;51.596;5.624;2023-04-09T12:20:41;102271.00;;;16.05;49.66
59043;BME280;44826;51.596;5.624;2023-04-09T12:23:09;102264.69;;;16.13;49.29
59043;BME280;44826;51.596;5.624;2023-04-09T12:25:36;102268.88;;;16.20;46.11
59043;BME280;44826;51.596;5.624;2023-04-09T12:28:03;102259.25;;;16.20;48.13
59043;BME280;44826;51.596;5.624;2023-04-09T12:30:29;102255.72;;;16.21;46.50
59043;BME280;44826;51.596;5.624;2023-04-09T12:32:55;102260.84;;;16.26;46.69
59043;BME280;44826;51.596;5.624;2023-04-09T12:35:21;102264.16;;;16.33;48.94
59043;BME280;44826;51.596;5.624;2023-04-09T12:37:47;102262.28;;;16.38;45.11
59043;BME280;44826;51.596;5.624;2023-04-09T12:40:13;102251.56;;;16.44;46.85
59043;BME280;44826;51.596;5.624;2023-04-09T12:42:42;102254.94;;;16.49;46.22
59043;BME280;44826;51.596;5.624;2023-04-09T12:45:09;102262.88;;;16.48;45.53
59043;BME280;44826;51.596;5.624;2023-04-09T12:47:34;102254.19;;;16.44;48.77
59043;BME280;44826;51.596;5.624;2023-04-09T12:50:00;102263.03;;;16.42;44.02
59043;BME280;44826;51.596;5.624;2023-04-09T12:52:25;102250.88;;;16.37;46.13
59043;BME280;44826;51.596;5.624;2023-04-09T12:54:51;102244.72;;;16.38;45.13
59043;BME280;44826;51.596;5.624;2023-04-09T12:57:16;102254.94;;;16.49;48.32
59043;BME280;44826;51.596;5.624;2023-04-09T12:59:42;102253.97;;;16.53;44.90
59043;BME280;44826;51.596;5.624;2023-04-09T13:02:07;102255.75;;;16.51;45.61
59043;BME280;44826;51.596;5.624;2023-04-09T13:04:32;102265.28;;;16.56;46.05
59043;BME280;44826;51.596;5.624;2023-04-09T13:06:57;102246.53;;;16.68;47.87